VHHH/HKG METAR and TAF weather

Enter ICAO airport designator
Station Type Date Time Source
VHHH METAR 2021/03/05 01:30 UTC NOAA

VHHH 050130Z 08013KT 7000 FEW010 SCT016 21/19 Q1016 NOSIG


Station Type Date Time Source
VHHH Decoded METAR 2021/03/05 01:30 UTC NOAA

Hong Kong Inter-National Airport, Hong Kong (VHHH) 22-20N 114-11E 24M
Mar 04, 2021 - 08:30 PM EST / 2021.03.05 0130 UTC
Wind: from the E (080 degrees) at 15 MPH (13 KT):0
Visibility: 4 mile(s):0
Sky conditions: partly cloudy
Temperature: 69 F (21 C)
Dew Point: 66 F (19 C)
Relative Humidity: 88%
Pressure (altimeter): 30.00 in. Hg (1016 hPa)
ob: VHHH 050130Z 08013KT 7000 FEW010 SCT016 21/19 Q1016 NOSIG
cycle: 1

Station Type Date Time Source
VHHH TAF 2021/03/04 18:21 UTC NOAA

TAF TAF VHHH 041700Z 0418/0524 08010KT 7000 FEW010 SCT020 TX23/0506Z TN20/0423Z TN21/0523Z
TEMPO 0418/0423 VRB05KT 4000 BR -RA
TEMPO 0517/0523 VRB05KT 4000 BR -RA

Example: see airport list